Gustavus Airport
PAGS : now visible

Airfield :











YOU CAN JOIN US ON...

 
LOGIN :

Register | Disclaimer

   EN    FR    IT 

 









Legend :    VFR   Marginal VFR   IFR   Intensive IFR   Very Intensive IFR
Visi :
Ceiling :
>= 8 km
>= 3000ft
5 to 8 km
1000 to 3000 ft
1500m to 5 km
500 to 1000 ft
800 to 1500m
200 to 500 ft
< 800m
< 200 ft
Symbols :   Thunderstorms  Fog  Heavy snow  Heavy precipitations  Wind > 20 kt






- Airport Elevation : 35 ft
- IATA code : GST


PAGS - Gustavus

CURRENT METAR :
  • 150656Z AUTO 13003KT 10SM OVC013 02/02 A3004 RMK AO2 SLP171 T00220017 FZRANO

EXPIRED METARs :
  • 150556Z AUTO 00000KT 10SM OVC011 02/02 A3004 RMK AO2 SLP171 T00220017 10033 20017 53000 FZRANO
  • 150456Z AUTO 00000KT 10SM OVC011 02/02 A3003 RMK AO2 SLP168 T00220017 FZRANO

TAF PAGS
Valid from the 15 at 06:00 until the 16 at 06:00 UTC


150548Z 1506/1606 02004KT P6SM OVC011
TEMPO 1506/1510 00000KT 5SM BR OVC009
FM151800 36006KT P6SM SCT015 SCT200 AMD LTD TO CLD VIS AND WIND



MET'MAP, your aeronautical weather chart ! - Copyright ORBIFLY December 2007 - Disclaimer

ORBIFLY MET'MAP TEAM :

Programming & Development : Alexandra Zaïnal
Concept & original design : Baudouin d'Aumeries
Assistance for programming : Marc-Olivier Méhu
Technical & hardware support : Manuel Goepfert

Contact : metmap@orbifly.com




SOURCES & CREDITS :

   NOAA       Earth
Advisory